KGRK - Killeen-Ft Hood Rgnl, TX, US

Issued at 0000 UTC 01 Nov 2020
Updated at 0047 UTC 01 Nov 2020
Potential Impact None Slight Moderate High
Time2358Z 01/01Z 01/02Z 01/03Z 01/04Z 01/05Z 01/06Z 01/07Z 01/08Z 01/09Z 01/10Z 01/11Z 01/12Z 01/13Z>>
Type OBS PRVL PRVL PRVL PRVL PRVL PRVL PRVL PRVL PRVL PRVL PRVL PRVL PRVL
VIS 9 >6 >6 >6 >6 >6 >6 >6 >6 >6 >6 >6 >6 >6
CIG -- -- -- -- -- -- -- -- -- -- -- -- -- --
Cover CLR FEW FEW FEW FEW FEW FEW FEW FEW FEW FEW FEW FEW FEW
FltCat VFR VFR VFR VFR VFR VFR VFR VFR VFR VFR VFR VFR VFR VFR
WX -- -- -- -- -- -- -- -- -- -- -- -- -- --
WDir 160 VRB VRB VRB VRB VRB VRB VRB VRB VRB VRB VRB VRB VRB
WSpd 4 6 6 6 6 6 6 6 6 6 6 6 6 6
WGst -- -- -- -- -- -- -- -- -- -- -- -- -- --
Raw TAF
TAF KGRK 010000Z 0100/0206 VRB06KT 9999 FEW270 QNH3008INS
  BECMG 0115/0116 02015G20KT 9999 SKC 510053 QNH3041INS
  BECMG 0123/0124 02006KT 9999 FEW270 510053 QNH3043INS TX21/0120Z TN04/0106Z


Raw METAR
KGRK 312358Z AUTO 16004KT 9SM CLR 19/06 A3009 RMK AO2 SLP188 T01940055 10236 20189 50006 $
KGRK 312258Z AUTO 16007KT 4SM HZ CLR 22/05 A3007 RMK AO2 SLP181 T02220047 $
KGRK 312158Z AUTO 16006KT 10SM CLR 23/04 A3008 RMK AO2 SLP183 T02340039 $

METAR Board
For situational awareness. Not to be used for flight planning purposes.